createdAt,value
2023-05-19T00:01:17.767Z,11.93
2023-05-19T00:03:55.162Z,11.98
2023-05-19T00:06:24.125Z,12.23
2023-05-19T00:08:56.475Z,12.10
2023-05-19T00:11:26.559Z,12.15
2023-05-19T00:13:54.298Z,12.70
2023-05-19T00:16:22.355Z,11.93
2023-05-19T00:18:49.616Z,12.20
2023-05-19T00:21:16.861Z,13.82
2023-05-19T00:23:44.009Z,14.45
2023-05-19T00:26:11.254Z,14.85
2023-05-19T00:28:39.701Z,14.98
2023-05-19T00:31:06.988Z,15.00
2023-05-19T00:33:34.327Z,13.63
2023-05-19T00:36:03.398Z,14.68
2023-05-19T00:38:31.086Z,12.88
2023-05-19T00:40:58.123Z,12.55
2023-05-19T00:43:25.361Z,13.55
2023-05-19T00:45:53.681Z,13.77
2023-05-19T00:48:21.131Z,13.52
2023-05-19T00:50:48.548Z,13.48
2023-05-19T00:53:18.575Z,13.27
2023-05-19T00:55:46.349Z,13.98
2023-05-19T00:58:14.857Z,11.80
2023-05-19T01:00:42.769Z,11.95
2023-05-19T01:03:11.715Z,13.48
2023-05-19T01:05:41.707Z,14.60
2023-05-19T01:08:09.195Z,13.63
2023-05-19T01:10:36.907Z,12.98
2023-05-19T01:13:05.388Z,13.15
2023-05-19T01:15:36.397Z,13.23
2023-05-19T01:18:11.282Z,13.25
2023-05-19T01:20:46.487Z,13.50
2023-05-19T01:23:27.574Z,14.57
2023-05-19T01:26:26.071Z,14.57
2023-05-19T01:29:23.328Z,15.30
2023-05-19T01:31:55.041Z,13.25
2023-05-19T01:34:23.858Z,14.05
2023-05-19T01:36:52.277Z,14.13
2023-05-19T01:39:20.375Z,14.38
2023-05-19T01:41:48.073Z,15.30
2023-05-19T01:44:16.174Z,15.30
2023-05-19T01:46:43.870Z,14.90
2023-05-19T01:49:13.668Z,15.27
2023-05-19T01:51:41.477Z,15.27
2023-05-19T01:54:08.413Z,15.25
2023-05-19T01:56:45.158Z,16.40
2023-05-19T01:59:23.299Z,15.73
2023-05-19T02:01:54.075Z,14.35
2023-05-19T02:04:31.609Z,15.38
2023-05-19T02:07:03.875Z,15.82
2023-05-19T02:09:52.286Z,13.52
2023-05-19T02:12:23.567Z,15.27
2023-05-19T02:14:58.837Z,13.48
2023-05-19T02:17:29.434Z,15.13
2023-05-19T02:19:57.668Z,13.43
2023-05-19T02:22:24.715Z,15.40
2023-05-19T02:24:51.924Z,15.77
2023-05-19T02:27:18.991Z,15.70
2023-05-19T02:29:46.095Z,15.00
2023-05-19T02:32:13.288Z,14.38
2023-05-19T02:34:42.295Z,16.58
2023-05-19T02:37:10.615Z,15.52
2023-05-19T02:39:37.452Z,15.25
2023-05-19T02:42:04.870Z,17.33
2023-05-19T02:44:31.745Z,16.65
2023-05-19T02:46:58.595Z,16.85
2023-05-19T02:49:25.448Z,15.93
2023-05-19T02:51:53.016Z,15.40
2023-05-19T02:54:21.270Z,15.15
2023-05-19T02:56:48.134Z,16.02
2023-05-19T02:59:15.045Z,15.55
2023-05-19T03:01:42.086Z,17.50
2023-05-19T03:04:09.093Z,17.15
2023-05-19T03:06:36.406Z,16.73
2023-05-19T03:09:03.735Z,17.05
2023-05-19T03:11:32.040Z,19.02
2023-05-19T03:13:58.888Z,16.17
2023-05-19T03:16:25.838Z,17.88
2023-05-19T03:18:53.055Z,15.52
2023-05-19T03:21:19.985Z,17.25
2023-05-19T03:23:47.339Z,18.35
2023-05-19T03:26:14.250Z,18.10
2023-05-19T03:28:42.558Z,20.00
2023-05-19T03:31:09.492Z,18.90
2023-05-19T03:33:36.409Z,18.35
2023-05-19T03:36:04.162Z,18.50
2023-05-19T03:38:31.044Z,19.23
2023-05-19T03:40:57.950Z,18.95
2023-05-19T03:43:24.918Z,20.48
2023-05-19T03:45:53.690Z,19.77
2023-05-19T03:48:21.378Z,18.60
2023-05-19T03:50:48.648Z,18.58
2023-05-19T03:53:15.767Z,18.30
2023-05-19T03:55:42.716Z,19.33
2023-05-19T03:58:10.698Z,19.58
2023-05-19T04:00:38.050Z,19.13
2023-05-19T04:03:06.468Z,20.23
2023-05-19T04:05:33.465Z,18.88
2023-05-19T04:08:00.329Z,18.23
2023-05-19T04:10:27.410Z,17.63
2023-05-19T04:12:54.288Z,18.30
2023-05-19T04:15:21.499Z,20.15
2023-05-19T04:17:48.398Z,19.88
2023-05-19T04:20:16.714Z,20.45
2023-05-19T04:22:43.571Z,19.30
2023-05-19T04:25:10.564Z,19.45
2023-05-19T04:27:38.988Z,19.83
2023-05-19T04:30:06.947Z,19.90
2023-05-19T04:32:33.890Z,19.05
2023-05-19T04:35:00.800Z,18.33
2023-05-19T04:37:30.007Z,20.27
2023-05-19T04:39:57.239Z,19.08
2023-05-19T04:42:26.269Z,17.52
2023-05-19T04:44:53.249Z,19.25
2023-05-19T04:47:21.642Z,18.85
2023-05-19T04:49:48.671Z,20.20
2023-05-19T04:52:15.951Z,20.23
2023-05-19T04:54:44.344Z,19.30
2023-05-19T04:57:11.227Z,20.05
2023-05-19T04:59:38.068Z,17.77
2023-05-19T05:02:05.070Z,21.08
2023-05-19T05:04:32.569Z,19.77
2023-05-19T05:06:59.435Z,19.23
2023-05-19T05:09:26.357Z,19.83
2023-05-19T05:11:55.426Z,19.20
2023-05-19T05:14:22.901Z,18.73
2023-05-19T05:16:50.826Z,19.80
2023-05-19T05:19:18.369Z,20.30
2023-05-19T05:21:45.955Z,19.70
2023-05-19T05:24:13.883Z,18.67
2023-05-19T05:26:41.457Z,20.73
2023-05-19T05:29:10.403Z,18.88
2023-05-19T05:31:37.958Z,17.42
2023-05-19T05:34:04.834Z,17.00
2023-05-19T05:36:31.995Z,14.93
2023-05-19T05:38:59.649Z,15.07
2023-05-19T05:41:27.471Z,12.85
2023-05-19T05:43:54.519Z,13.50
2023-05-19T05:46:22.906Z,11.35
2023-05-19T05:48:50.462Z,10.13
2023-05-19T05:51:17.902Z,10.30
2023-05-19T05:53:48.036Z,9.98
2023-05-19T05:56:15.569Z,10.85
2023-05-19T05:58:42.560Z,9.32
2023-05-19T06:01:11.296Z,8.68
2023-05-19T06:03:41.627Z,9.27
2023-05-19T06:06:08.609Z,9.00
2023-05-19T06:08:35.604Z,7.57
2023-05-19T06:11:08.392Z,7.72
2023-05-19T06:13:36.059Z,8.40
2023-05-19T06:16:03.223Z,8.70
2023-05-19T06:18:30.115Z,7.18
2023-05-19T06:20:58.895Z,8.00
2023-05-19T06:23:27.014Z,6.78
2023-05-19T06:25:53.896Z,7.03
2023-05-19T06:28:21.012Z,6.93
2023-05-19T06:30:48.062Z,6.60
2023-05-19T06:33:14.973Z,6.82
2023-05-19T06:35:41.985Z,6.40
2023-05-19T06:38:10.307Z,5.15
2023-05-19T06:40:37.236Z,6.72
2023-05-19T06:43:04.919Z,6.13
2023-05-19T06:45:31.926Z,7.05
2023-05-19T06:47:58.914Z,5.90
2023-05-19T06:50:26.334Z,6.28
2023-05-19T06:52:53.297Z,5.60
2023-05-19T06:55:21.772Z,7.10
2023-05-19T06:57:48.694Z,6.95
2023-05-19T07:00:18.811Z,7.35
2023-05-19T07:02:47.571Z,7.32
2023-05-19T07:05:14.887Z,6.85
2023-05-19T07:07:42.335Z,7.13
2023-05-19T07:10:10.210Z,6.03
2023-05-19T07:12:38.502Z,6.40
2023-05-19T07:15:06.427Z,6.03
2023-05-19T07:17:33.390Z,6.85
2023-05-19T07:20:01.667Z,6.40
2023-05-19T07:22:28.655Z,6.32
2023-05-19T07:24:57.169Z,6.65
2023-05-19T07:27:24.059Z,7.07
2023-05-19T07:29:52.292Z,6.85
2023-05-19T07:32:19.291Z,6.78
2023-05-19T07:34:46.240Z,7.28
2023-05-19T07:37:13.108Z,7.55
2023-05-19T07:39:40.034Z,6.30
2023-05-19T07:42:06.918Z,6.22
2023-05-19T07:44:34.738Z,6.53
2023-05-19T07:47:03.080Z,6.53
2023-05-19T07:49:30.201Z,6.35
2023-05-19T07:51:57.506Z,6.20
2023-05-19T07:54:24.363Z,7.18
2023-05-19T07:56:51.297Z,6.03
2023-05-19T07:59:18.272Z,6.63
2023-05-19T08:01:45.212Z,6.63
2023-05-19T08:04:14.166Z,6.57
2023-05-19T08:06:42.896Z,6.50
2023-05-19T08:09:09.874Z,6.32
2023-05-19T08:11:37.124Z,6.95
2023-05-19T08:14:04.059Z,6.80
2023-05-19T08:16:31.126Z,6.10
2023-05-19T08:18:58.242Z,5.70
2023-05-19T08:21:26.553Z,5.88
2023-05-19T08:23:53.546Z,6.18
2023-05-19T08:26:21.582Z,5.88
2023-05-19T08:28:48.663Z,6.05
2023-05-19T08:31:15.649Z,6.43
2023-05-19T08:33:42.618Z,7.65
2023-05-19T08:36:09.643Z,6.63
2023-05-19T08:38:37.901Z,6.47
2023-05-19T08:41:05.961Z,6.95
2023-05-19T08:43:33.221Z,6.88
2023-05-19T08:46:00.771Z,5.68
2023-05-19T08:48:29.444Z,6.30
2023-05-19T08:51:06.505Z,7.32
2023-05-19T08:53:40.605Z,6.22
2023-05-19T08:56:12.127Z,7.05
2023-05-19T08:58:40.405Z,7.03
2023-05-19T09:01:07.850Z,6.68
2023-05-19T09:03:39.275Z,5.78
2023-05-19T09:06:08.575Z,6.30
2023-05-19T09:08:37.524Z,6.30
2023-05-19T09:11:06.087Z,6.18
2023-05-19T09:13:33.027Z,6.93
2023-05-19T09:16:00.109Z,6.20
2023-05-19T09:18:27.344Z,5.75
2023-05-19T09:21:00.661Z,5.55
2023-05-19T09:23:29.660Z,5.35
2023-05-19T09:25:57.555Z,6.25
2023-05-19T09:28:28.006Z,5.60
2023-05-19T09:31:00.215Z,5.32
2023-05-19T09:33:27.174Z,6.28
2023-05-19T09:35:54.707Z,5.10
2023-05-19T09:38:21.613Z,5.18
2023-05-19T09:40:48.815Z,5.65
2023-05-19T09:43:16.242Z,5.47
2023-05-19T09:45:44.613Z,5.72
2023-05-19T09:48:11.723Z,5.90
2023-05-19T09:50:38.658Z,6.00
2023-05-19T09:53:05.592Z,4.60
2023-05-19T09:55:33.716Z,6.55
2023-05-19T09:58:05.098Z,6.70
2023-05-19T10:00:33.067Z,6.10
2023-05-19T10:03:05.341Z,5.95
2023-05-19T10:05:33.761Z,5.47
2023-05-19T10:08:02.620Z,6.00
2023-05-19T10:10:31.299Z,5.78
2023-05-19T10:13:00.188Z,6.20
2023-05-19T10:15:27.271Z,5.70
2023-05-19T10:17:55.170Z,6.60
2023-05-19T10:20:23.546Z,6.78
2023-05-19T10:22:50.464Z,6.05
2023-05-19T10:25:19.906Z,6.50
2023-05-19T10:27:52.216Z,7.03
2023-05-19T10:30:26.109Z,5.55
2023-05-19T10:32:54.860Z,5.80
2023-05-19T10:35:59.770Z,6.13
2023-05-19T10:38:33.741Z,5.90
2023-05-19T10:41:09.050Z,5.53
2023-05-19T10:43:55.119Z,5.25
2023-05-19T10:46:25.520Z,4.60
2023-05-19T10:48:52.550Z,5.15
2023-05-19T10:51:20.981Z,5.47
2023-05-19T10:53:49.984Z,3.88
2023-05-19T10:56:31.157Z,4.05
2023-05-19T10:58:58.069Z,3.75
2023-05-19T11:01:31.591Z,4.40
2023-05-19T11:04:04.324Z,3.88
2023-05-19T11:06:34.218Z,4.20
2023-05-19T11:09:02.435Z,3.97
2023-05-19T11:11:45.437Z,3.92
2023-05-19T11:14:15.632Z,4.10
2023-05-19T11:16:43.325Z,3.10
2023-05-19T11:19:20.006Z,3.13
2023-05-19T11:21:52.761Z,3.70
2023-05-19T11:24:40.204Z,3.23
2023-05-19T11:27:31.531Z,3.75
2023-05-19T11:30:00.238Z,3.38
2023-05-19T11:32:28.931Z,3.10
2023-05-19T11:34:56.440Z,3.63
2023-05-19T11:37:24.891Z,2.78
2023-05-19T11:39:52.456Z,3.38
2023-05-19T11:42:19.475Z,3.25
2023-05-19T11:44:47.162Z,3.40
2023-05-19T11:47:14.762Z,3.05
2023-05-19T11:49:44.374Z,4.25
2023-05-19T11:52:11.523Z,3.47
2023-05-19T11:54:41.931Z,3.65
2023-05-19T11:57:10.583Z,3.65
2023-05-19T11:59:39.274Z,3.97
2023-05-19T12:02:17.663Z,3.75
2023-05-19T12:04:45.215Z,3.97
2023-05-19T12:07:20.204Z,4.28
2023-05-19T12:09:49.626Z,3.90
2023-05-19T12:12:18.784Z,4.18
2023-05-19T12:14:46.948Z,3.80
2023-05-19T12:17:21.518Z,3.80
2023-05-19T12:19:49.733Z,3.65
2023-05-19T12:22:18.447Z,3.33
2023-05-19T12:24:49.606Z,3.78
2023-05-19T12:27:20.130Z,3.35
2023-05-19T12:29:50.643Z,3.17
2023-05-19T12:32:17.584Z,3.40
2023-05-19T12:34:44.600Z,3.60
2023-05-19T12:37:11.788Z,2.72
2023-05-19T12:39:40.167Z,3.50
2023-05-19T12:42:09.627Z,3.25
2023-05-19T12:44:42.608Z,2.80
2023-05-19T12:47:09.488Z,4.10
2023-05-19T12:49:36.695Z,3.15
2023-05-19T12:52:07.204Z,3.60
2023-05-19T12:54:37.812Z,3.30
2023-05-19T12:57:06.714Z,3.55
2023-05-19T12:59:38.801Z,3.10
2023-05-19T13:02:07.568Z,3.65
2023-05-19T13:04:34.670Z,3.75
2023-05-19T13:07:01.831Z,3.33
2023-05-19T13:09:29.074Z,3.50
2023-05-19T13:11:56.079Z,3.67
2023-05-19T13:14:22.994Z,3.45
2023-05-19T13:16:49.912Z,3.08
2023-05-19T13:19:24.970Z,3.55
2023-05-19T13:21:52.590Z,3.30
2023-05-19T13:24:19.521Z,4.03
2023-05-19T13:26:46.530Z,3.50
2023-05-19T13:29:13.580Z,3.03
2023-05-19T13:31:40.724Z,3.75
2023-05-19T13:34:08.014Z,3.60
2023-05-19T13:36:36.599Z,3.85
2023-05-19T13:39:03.656Z,4.50
2023-05-19T13:41:30.555Z,3.78
2023-05-19T13:43:59.582Z,4.10
2023-05-19T13:46:40.895Z,3.75
2023-05-19T13:49:12.071Z,3.85
2023-05-19T13:51:42.862Z,3.80
2023-05-19T13:54:10.064Z,4.07
2023-05-19T13:56:37.018Z,3.15
2023-05-19T13:59:04.221Z,3.90
2023-05-19T14:01:31.301Z,3.53
2023-05-19T14:03:58.465Z,3.90
2023-05-19T14:06:25.466Z,4.10
2023-05-19T14:08:53.700Z,4.13
2023-05-19T14:11:21.683Z,3.85
2023-05-19T14:13:53.063Z,4.07
2023-05-19T14:16:22.100Z,3.67
2023-05-19T14:18:49.383Z,5.47
2023-05-19T14:21:16.378Z,5.72
2023-05-19T14:23:43.325Z,5.95
2023-05-19T14:26:11.684Z,5.93
2023-05-19T14:28:38.588Z,6.05
2023-05-19T14:31:06.295Z,6.47
2023-05-19T14:33:35.656Z,6.25
2023-05-19T14:36:02.936Z,6.63
2023-05-19T14:38:29.914Z,7.05
2023-05-19T14:40:56.913Z,6.40
2023-05-19T14:43:25.262Z,7.10
2023-05-19T14:45:52.219Z,7.55
2023-05-19T14:48:19.146Z,8.30
2023-05-19T14:50:48.337Z,8.23
2023-05-19T14:53:15.532Z,7.95
2023-05-19T14:55:42.455Z,8.25
2023-05-19T14:58:19.985Z,8.07
2023-05-19T15:00:57.831Z,7.32
2023-05-19T15:03:25.014Z,7.57
2023-05-19T15:05:52.149Z,8.07
2023-05-19T15:08:19.109Z,6.65
2023-05-19T15:10:48.772Z,8.38
2023-05-19T15:13:16.183Z,8.25
2023-05-19T15:15:43.078Z,7.82
2023-05-19T15:18:16.304Z,6.93
2023-05-19T15:20:43.950Z,7.18
2023-05-19T15:23:11.067Z,7.53
2023-05-19T15:25:38.068Z,7.20
2023-05-19T15:28:05.170Z,6.30
2023-05-19T15:30:32.064Z,7.90
2023-05-19T15:32:59.044Z,7.65
2023-05-19T15:35:27.647Z,7.75
2023-05-19T15:37:54.531Z,6.72
2023-05-19T15:40:21.495Z,7.15
2023-05-19T15:42:48.404Z,6.28
2023-05-19T15:45:15.295Z,7.55
2023-05-19T15:47:42.281Z,7.18
2023-05-19T15:50:10.010Z,7.63
2023-05-19T15:52:38.285Z,6.22
2023-05-19T15:55:06.166Z,6.68
2023-05-19T15:57:33.079Z,6.35
2023-05-19T16:00:00.041Z,6.28
2023-05-19T16:02:27.128Z,6.13
2023-05-19T16:04:54.163Z,6.65
2023-05-19T16:07:22.586Z,6.68
2023-05-19T16:09:51.071Z,5.65
2023-05-19T16:12:18.106Z,6.10
2023-05-19T16:14:44.987Z,5.63
2023-05-19T16:17:13.753Z,5.38
2023-05-19T16:19:40.747Z,5.60
2023-05-19T16:22:07.707Z,6.43
2023-05-19T16:24:34.649Z,5.97
2023-05-19T16:27:03.033Z,5.85
2023-05-19T16:29:29.839Z,6.72
2023-05-19T16:31:56.741Z,6.53
2023-05-19T16:34:23.850Z,6.07
2023-05-19T16:36:50.785Z,5.78
2023-05-19T16:39:17.682Z,5.57
2023-05-19T16:41:44.673Z,5.88
2023-05-19T16:44:14.688Z,5.40
2023-05-19T16:46:41.694Z,5.68
2023-05-19T16:49:09.078Z,5.72
2023-05-19T16:51:35.952Z,5.75
2023-05-19T16:54:02.911Z,5.55
2023-05-19T16:56:44.810Z,5.35
2023-05-19T16:59:13.152Z,5.55
2023-05-19T17:01:40.059Z,5.13
2023-05-19T17:04:06.961Z,5.80
2023-05-19T17:06:33.936Z,5.53
2023-05-19T17:09:00.901Z,5.93
2023-05-19T17:11:28.090Z,5.50
2023-05-19T17:13:54.991Z,5.65
2023-05-19T17:16:23.901Z,5.18
2023-05-19T17:18:51.464Z,4.95
2023-05-19T17:21:18.520Z,5.88
2023-05-19T17:23:45.642Z,5.10
2023-05-19T17:26:12.548Z,5.22
2023-05-19T17:28:39.478Z,4.88
2023-05-19T17:31:10.130Z,5.80
2023-05-19T17:33:38.504Z,4.97
2023-05-19T17:36:06.605Z,5.15
2023-05-19T17:38:33.536Z,5.53
2023-05-19T17:41:00.997Z,4.65
2023-05-19T17:43:28.370Z,4.65
2023-05-19T17:45:55.351Z,5.18
2023-05-19T17:48:22.307Z,4.75
2023-05-19T17:50:50.600Z,5.53
2023-05-19T17:53:18.181Z,4.90
2023-05-19T17:55:50.368Z,4.95
2023-05-19T17:58:17.838Z,3.70
2023-05-19T18:00:45.862Z,4.63
2023-05-19T18:03:13.414Z,4.03
2023-05-19T18:05:43.345Z,4.50
2023-05-19T18:08:13.605Z,4.40
2023-05-19T18:10:41.884Z,5.10
2023-05-19T18:13:10.538Z,4.43
2023-05-19T18:15:37.661Z,4.25
2023-05-19T18:18:07.484Z,4.88
2023-05-19T18:20:35.043Z,4.28
2023-05-19T18:23:02.902Z,4.40
2023-05-19T18:25:31.283Z,4.75
2023-05-19T18:27:58.156Z,5.45
2023-05-19T18:30:25.074Z,4.80
2023-05-19T18:32:51.989Z,4.45
2023-05-19T18:35:21.142Z,4.47
2023-05-19T18:37:48.020Z,4.90
2023-05-19T18:40:14.916Z,5.07
2023-05-19T18:42:43.241Z,5.43
2023-05-19T18:45:10.683Z,4.35
2023-05-19T18:47:37.665Z,5.00
2023-05-19T18:50:05.419Z,6.05
2023-05-19T18:52:32.437Z,5.38
2023-05-19T18:55:01.150Z,5.95
2023-05-19T18:57:28.071Z,5.82
2023-05-19T18:59:56.392Z,5.72
2023-05-19T19:02:23.302Z,6.18
2023-05-19T19:04:50.263Z,5.50
2023-05-19T19:07:17.248Z,5.43
2023-05-19T19:09:44.117Z,6.03
2023-05-19T19:12:11.259Z,5.15
2023-05-19T19:14:38.732Z,5.32
2023-05-19T19:17:07.245Z,5.28
2023-05-19T19:19:34.229Z,6.47
2023-05-19T19:22:01.187Z,5.35
2023-05-19T19:24:28.573Z,6.07
2023-05-19T19:26:55.564Z,5.22
2023-05-19T19:29:22.455Z,5.50
2023-05-19T19:31:49.385Z,5.57
2023-05-19T19:34:19.872Z,6.47
2023-05-19T19:36:47.928Z,6.78
2023-05-19T19:39:14.875Z,5.43
2023-05-19T19:41:41.909Z,6.57
2023-05-19T19:44:08.915Z,5.32
2023-05-19T19:46:36.008Z,6.22
2023-05-19T19:49:03.001Z,5.55
2023-05-19T19:51:31.773Z,6.20
2023-05-19T19:53:59.152Z,5.78
2023-05-19T19:56:27.589Z,6.20
2023-05-19T19:58:56.924Z,5.50
2023-05-19T20:01:27.606Z,5.95
2023-05-19T20:03:55.461Z,5.75
2023-05-19T20:06:22.584Z,5.22
2023-05-19T20:08:50.883Z,5.85
2023-05-19T20:11:17.833Z,6.03
2023-05-19T20:13:44.960Z,6.47
2023-05-19T20:16:11.896Z,6.03
2023-05-19T20:18:39.607Z,6.15
2023-05-19T20:21:06.619Z,5.40
2023-05-19T20:23:33.717Z,6.68
2023-05-19T20:26:10.980Z,5.93
2023-05-19T20:28:39.380Z,6.35
2023-05-19T20:31:06.515Z,5.75
2023-05-19T20:33:33.517Z,5.80
2023-05-19T20:36:00.493Z,5.65
2023-05-19T20:38:27.421Z,5.93
2023-05-19T20:40:54.387Z,7.38
2023-05-19T20:43:22.733Z,6.70
2023-05-19T20:45:49.738Z,6.50
2023-05-19T20:48:16.795Z,6.60
2023-05-19T20:50:43.980Z,6.75
2023-05-19T20:53:11.018Z,6.25
2023-05-19T20:55:38.680Z,7.10
2023-05-19T20:58:05.786Z,6.47
2023-05-19T21:00:34.200Z,6.57
2023-05-19T21:03:01.579Z,6.03
2023-05-19T21:05:29.083Z,6.78
2023-05-19T21:07:56.464Z,6.85
2023-05-19T21:10:23.605Z,6.43
2023-05-19T21:12:50.535Z,7.10
2023-05-19T21:15:17.519Z,7.03
2023-05-19T21:17:46.652Z,6.47
2023-05-19T21:20:13.688Z,6.68
2023-05-19T21:22:41.044Z,6.00
2023-05-19T21:25:08.638Z,7.30
2023-05-19T21:27:36.387Z,7.70
2023-05-19T21:30:03.710Z,7.72
2023-05-19T21:32:31.021Z,7.28
2023-05-19T21:35:00.008Z,6.80
2023-05-19T21:37:26.948Z,7.10
2023-05-19T21:39:53.927Z,6.03
2023-05-19T21:42:20.826Z,6.32
2023-05-19T21:44:47.707Z,6.25
2023-05-19T21:47:14.842Z,6.68
2023-05-19T21:49:41.769Z,6.97
2023-05-19T21:52:10.427Z,5.90
2023-05-19T21:54:37.453Z,7.25
2023-05-19T21:57:04.772Z,7.53
2023-05-19T21:59:31.649Z,6.53
2023-05-19T22:01:58.899Z,7.50
2023-05-19T22:04:25.940Z,6.70
2023-05-19T22:06:52.799Z,7.38
2023-05-19T22:09:21.694Z,8.68
2023-05-19T22:11:48.545Z,7.95
2023-05-19T22:14:15.645Z,8.02
2023-05-19T22:16:42.593Z,8.35
2023-05-19T22:19:10.564Z,7.75
2023-05-19T22:21:37.597Z,7.93
2023-05-19T22:24:04.707Z,8.07
2023-05-19T22:26:34.395Z,8.98
2023-05-19T22:29:01.782Z,8.02
2023-05-19T22:31:29.712Z,8.27
2023-05-19T22:33:56.684Z,8.73
2023-05-19T22:36:23.833Z,6.97
2023-05-19T22:38:50.693Z,8.48
2023-05-19T22:41:17.604Z,7.70
2023-05-19T22:43:46.007Z,8.13
2023-05-19T22:46:13.111Z,7.88
2023-05-19T22:48:39.969Z,7.65
2023-05-19T22:51:06.854Z,8.00
2023-05-19T22:53:33.704Z,9.25
2023-05-19T22:56:00.575Z,8.23
2023-05-19T22:58:27.437Z,9.23
2023-05-19T23:00:56.228Z,9.48
2023-05-19T23:03:23.320Z,9.80
2023-05-19T23:05:50.254Z,10.20
2023-05-19T23:08:17.109Z,11.05
2023-05-19T23:10:44.769Z,10.13
2023-05-19T23:13:12.035Z,9.88
2023-05-19T23:15:38.902Z,10.20
2023-05-19T23:18:08.692Z,10.15
2023-05-19T23:20:35.807Z,10.15
2023-05-19T23:23:02.780Z,9.85
2023-05-19T23:25:29.759Z,11.48
2023-05-19T23:27:56.656Z,10.13
2023-05-19T23:30:23.563Z,11.93
2023-05-19T23:32:50.493Z,10.65
2023-05-19T23:35:20.086Z,11.88
2023-05-19T23:37:47.033Z,11.00
2023-05-19T23:40:14.435Z,11.90
2023-05-19T23:42:41.395Z,11.65
2023-05-19T23:45:08.991Z,12.70
2023-05-19T23:47:35.968Z,13.00
2023-05-19T23:50:03.019Z,13.52
2023-05-19T23:52:32.804Z,14.63
2023-05-19T23:54:59.789Z,14.80
2023-05-19T23:57:26.633Z,15.90
2023-05-19T23:59:53.505Z,14.98
